Crew | Aerofun Virtual



 METAR AND TAF INFORMATION
METAR FOR EFVA
ADDS - METARS form results

(0321 UTC 23 September 2019)
Data provider http://aviationweather.gov/metar/data/
 
METAR text: EFVA 230320Z AUTO 25002KT 1900 BCFG NCD M01/M02 Q1024
Conditions at: EFVA (VAASA , FI) observed 0320 UTC 23 September 2019
Temperature: -1.0°C (30°F)
Dewpoint: -2.0°C (28°F) [RH = 93%]
Pressure (altimeter): 30.24 inches Hg (1024.0 mb)
Winds: from the WSW (250 degrees) at 2 MPH (2 knots; 1.0 m/s)
Visibility: 1.18 miles (1.90 km)
Ceiling: at least 12,000 feet AGL
Clouds: sky clear below 12,000 feet AGL
Weather: BCFG  (patches of fog)

METAR text: EFVA 230250Z AUTO VRB01KT 0600 R16/0700 FZFG NCD M01/M02 Q1024
Conditions at: EFVA (VAASA , FI) observed 0250 UTC 23 September 2019
Temperature: -1.0°C (30°F)
Dewpoint: -2.0°C (28°F) [RH = 93%]
Pressure (altimeter): 30.24 inches Hg (1024.0 mb)
Winds: variable direction winds at 1 MPH (1 knots; 0.5 m/s)
Visibility: 0.37 miles (0.60 km)
Ceiling: at least 12,000 feet AGL
Clouds: sky clear below 12,000 feet AGL
Weather: FZFG  (freezing fog)

Forecast for: AMD
Text: TAF AMD EFVA 230252Z 2303/2403 28002KT CAVOK
Forecast period: 0300 UTC 23 September 2019 to 0300 UTC 24 September 2019
Forecast type: FROM: standard forecast or significant change
Winds: from the W (280 degrees) at 2 MPH (2 knots; 1.0 m/s)
Visibility: 6 or more miles 10+ km)
Ceiling: unknown
Clouds: missing
Weather: NSW  (no significant weather)
Text: TEMPO 2303/2306 0600 FZFG
Forecast period: 0300 to 0600 UTC 23 September 2019
Forecast type: TEMPORARY: The following changes expected for less than half the time period
Visibility: 0.37 miles (0.60 km)
Ceiling: unknown
Clouds: missing
Weather: FZFG  (freezing fog)

 AIRPORT MAP

 RUNWAY INFORMATION
Runway 16 Runway length 8727 ft Runway width 157 ft
Runway elevation 19 ft Runway displaced threshold 0 ft Runway heading 163
Runway 34 Runway length 8727 ft Runway width 157 ft
Runway elevation 11 ft Runway displaced threshold 525 ft Runway heading 343

 AIRPORT FREQUENCIES
Type ATIS Name ATIS Frequency 114.5 MHZ
Type TWR Name TWR Frequency 119.3 MHZ

 AIRPORT NEAR NAVIGATION AIDS
Type VOR-DME Name Vaasa Frequency 114500 KHZ